Time;durP1;ratioP1;P1;durP2;ratioP2;P2;SDS_P1;SDS_P2;PMS_P1;PMS_P2;Temp;Humidity;BMP_temperature;BMP_pressure;BME280_temperature;BME280_humidity;BME280_pressure;Samples;Min_cycle;Max_cycle;Signal;HPM_P1;HPM_P2
2022/05/29 00:00:48;;;;;;;7.38;2.17;;;12.50;76.00;;;;;;5048810;28;20033;-73
2022/05/29 00:03:14;;;;;;;7.38;2.10;;;12.50;75.80;;;;;;5047369;28;20075;-74
2022/05/29 00:05:40;;;;;;;10.13;2.15;;;12.50;75.90;;;;;;5047993;28;20025;-74
2022/05/29 00:08:07;;;;;;;5.07;1.95;;;12.40;76.00;;;;;;5048916;28;20438;-75
2022/05/29 00:10:36;;;;;;;6.25;2.10;;;12.40;76.10;;;;;;5049231;28;20025;-75
2022/05/29 00:13:02;;;;;;;8.35;2.50;;;12.40;76.10;;;;;;5044215;28;20654;-73
2022/05/29 00:15:28;;;;;;;6.25;2.25;;;12.40;76.30;;;;;;5039389;28;20032;-74
2022/05/29 00:17:53;;;;;;;12.23;2.60;;;12.40;76.60;;;;;;5044961;28;20108;-74
2022/05/29 00:20:19;;;;;;;6.13;2.20;;;12.40;76.70;;;;;;5048939;28;20108;-74
2022/05/29 00:22:45;;;;;;;6.25;2.08;;;12.40;76.80;;;;;;5049026;28;20048;-74
2022/05/29 00:25:12;;;;;;;6.90;2.45;;;12.40;76.80;;;;;;5048579;28;20024;-75
2022/05/29 00:27:38;;;;;;;6.15;1.77;;;12.30;77.10;;;;;;5048165;28;20017;-75
2022/05/29 00:30:06;;;;;;;8.05;2.72;;;12.30;77.40;;;;;;5048813;28;20454;-75
2022/05/29 00:32:32;;;;;;;10.57;2.60;;;12.30;77.60;;;;;;5047719;28;20067;-75
2022/05/29 00:34:58;;;;;;;8.77;2.38;;;12.30;77.80;;;;;;5048259;28;20119;-75
2022/05/29 00:37:24;;;;;;;10.40;2.58;;;12.30;78.10;;;;;;5048218;28;20104;-74
2022/05/29 00:39:50;;;;;;;7.63;2.13;;;12.40;78.20;;;;;;5047729;28;20087;-74
2022/05/29 00:42:19;;;;;;;9.35;2.65;;;12.40;78.40;;;;;;5048002;28;20392;-75
2022/05/29 00:44:45;;;;;;;8.80;2.20;;;12.40;78.40;;;;;;5047273;28;20480;-74
2022/05/29 00:47:15;;;;;;;8.75;2.25;;;12.40;78.70;;;;;;5048608;28;20043;-74
2022/05/29 00:49:42;;;;;;;;;;;12.40;79.10;;;;;;5048294;28;20029;-75
2022/05/29 00:52:16;;;;;;;6.15;1.98;;;12.40;79.10;;;;;;5048394;28;19905;-74
2022/05/29 00:54:53;;;;;;;7.05;2.13;;;12.30;79.50;;;;;;5047358;28;20051;-74
2022/05/29 00:57:39;;;;;;;10.43;2.10;;;12.30;80.10;;;;;;5048200;28;20044;-74
2022/05/29 01:00:16;;;;;;;7.00;2.20;;;12.40;80.20;;;;;;5048676;28;20064;-74
2022/05/29 01:02:43;;;;;;;7.50;2.65;;;12.40;80.30;;;;;;5050758;28;20036;-74
2022/05/29 01:05:14;;;;;;;6.38;2.10;;;12.40;80.50;;;;;;5059007;28;20131;-75
2022/05/29 01:07:43;;;;;;;8.35;2.25;;;12.40;80.70;;;;;;5052614;28;20033;-74
2022/05/29 01:10:09;;;;;;;9.25;2.60;;;12.40;81.10;;;;;;5052069;28;20472;-73
2022/05/29 01:12:54;;;;;;;8.85;2.42;;;12.50;81.20;;;;;;5051699;28;20117;-74
2022/05/29 01:15:29;;;;;;;7.35;2.47;;;12.50;81.40;;;;;;5050959;28;20399;-75
2022/05/29 01:18:27;;;;;;;7.38;1.63;;;12.50;81.00;;;;;;5051860;28;20137;-74
2022/05/29 01:21:27;;;;;;;8.98;3.03;;;12.50;80.50;;;;;;5051494;28;20021;-74
2022/05/29 01:24:06;;;;;;;10.88;2.83;;;12.50;80.40;;;;;;5050806;28;20044;-74
2022/05/29 01:26:58;;;;;;;7.70;2.60;;;12.50;80.90;;;;;;5052463;28;20784;-74
2022/05/29 01:29:42;;;;;;;7.40;2.67;;;12.50;81.30;;;;;;5051584;28;20025;-75
2022/05/29 01:32:20;;;;;;;7.10;2.13;;;12.50;81.00;;;;;;5042794;28;20025;-74
2022/05/29 01:34:53;;;;;;;10.52;2.92;;;12.50;81.00;;;;;;5051441;28;20029;-73
2022/05/29 01:37:27;;;;;;;8.70;2.83;;;12.60;81.20;;;;;;5051341;28;20025;-75
2022/05/29 01:40:08;;;;;;;12.25;3.25;;;12.60;81.10;;;;;;5049602;28;20036;-75
2022/05/29 01:42:55;;;;;;;11.95;3.88;;;12.60;80.90;;;;;;5051341;28;20056;-74
2022/05/29 01:45:53;;;;;;;9.90;2.95;;;12.60;80.70;;;;;;5051637;28;20032;-74
2022/05/29 01:48:39;;;;;;;13.68;3.08;;;12.50;80.60;;;;;;5051538;28;20027;-73
2022/05/29 01:51:44;;;;;;;10.45;3.05;;;12.60;80.60;;;;;;5050800;28;20078;-74
2022/05/29 01:54:17;;;;;;;11.07;3.45;;;12.50;80.40;;;;;;5022015;28;20601;-74
2022/05/29 01:57:08;;;;;;;7.88;3.15;;;12.50;80.30;;;;;;5050878;28;20100;-73
2022/05/29 01:59:44;;;;;;;7.55;2.85;;;12.50;80.40;;;;;;5041577;28;20095;-74
2022/05/29 02:02:15;;;;;;;8.32;3.35;;;12.50;80.60;;;;;;5051367;28;20025;-74
2022/05/29 02:04:46;;;;;;;10.05;3.55;;;12.50;80.50;;;;;;5051123;28;20498;-73
2022/05/29 02:10:21;;;;;;;8.38;3.30;;;12.50;80.90;;;;;;5050434;28;20075;-74
2022/05/29 02:13:06;;;;;;;10.20;3.92;;;12.40;80.90;;;;;;5050591;28;20611;-75
2022/05/29 02:15:57;;;;;;;10.48;3.70;;;12.40;81.20;;;;;;5050368;28;20053;-75
2022/05/29 02:18:46;;;;;;;7.28;3.33;;;12.30;81.30;;;;;;5049348;28;20452;-74
2022/05/29 02:21:19;;;;;;;7.78;3.03;;;12.30;81.30;;;;;;5050423;28;20021;-74
2022/05/29 02:23:50;;;;;;;8.13;3.00;;;12.30;81.30;;;;;;5050645;28;20067;-74
2022/05/29 02:26:23;;;;;;;10.18;2.92;;;12.20;81.10;;;;;;5051338;28;20036;-74
2022/05/29 02:28:54;;;;;;;9.02;3.17;;;12.30;81.40;;;;;;5050596;28;20021;-75
2022/05/29 02:31:37;;;;;;;11.35;3.63;;;12.30;81.70;;;;;;5050311;28;20025;-75
2022/05/29 02:34:32;;;;;;;12.52;3.85;;;12.30;81.80;;;;;;5050803;28;20045;-75
2022/05/29 02:37:01;;;;;;;7.65;3.53;;;12.20;81.60;;;;;;5049774;28;20447;-76
2022/05/29 02:40:10;;;;;;;10.63;3.63;;;12.20;81.40;;;;;;5050254;28;20021;-74
2022/05/29 02:42:39;;;;;;;11.93;3.38;;;12.10;81.90;;;;;;5050318;28;20081;-74
2022/05/29 02:45:23;;;;;;;12.67;4.47;;;12.10;81.90;;;;;;5050699;28;20025;-74
2022/05/29 02:48:21;;;;;;;6.85;2.72;;;12.10;82.10;;;;;;5050278;28;20387;-74
2022/05/29 02:50:57;;;;;;;8.98;2.25;;;12.00;82.40;;;;;;5049228;28;20036;-73
2022/05/29 02:53:24;;;;;;;8.25;2.85;;;12.00;82.50;;;;;;5048031;28;20021;-73
2022/05/29 02:55:50;;;;;;;8.32;3.30;;;11.90;82.70;;;;;;5040597;28;20114;-73
2022/05/29 02:58:23;;;;;;;8.05;2.85;;;11.90;82.90;;;;;;5046111;28;20460;-74
2022/05/29 03:01:20;;;;;;;7.90;2.20;;;11.90;83.10;;;;;;5050696;28;20017;-73
2022/05/29 03:04:18;;;;;;;9.77;2.38;;;11.90;83.20;;;;;;5044644;28;20033;-74
2022/05/29 03:06:57;;;;;;;9.50;2.60;;;11.90;83.20;;;;;;5028631;28;20053;-74
2022/05/29 03:09:47;;;;;;;8.73;2.40;;;11.90;83.30;;;;;;5048443;28;20488;-73
2022/05/29 03:12:30;;;;;;;7.38;1.85;;;11.90;83.20;;;;;;5049881;28;20037;-74
2022/05/29 03:15:20;;;;;;;5.78;2.30;;;11.90;83.20;;;;;;5049889;28;20538;-73
2022/05/29 03:18:07;;;;;;;6.00;2.17;;;11.90;83.60;;;;;;5047292;28;20460;-73
2022/05/29 03:20:46;;;;;;;5.60;1.73;;;11.90;83.60;;;;;;5038984;28;20033;-76
2022/05/29 03:23:32;;;;;;;6.88;2.50;;;11.90;83.90;;;;;;5050888;28;20195;-74
2022/05/29 03:26:06;;;;;;;8.55;2.15;;;11.80;83.90;;;;;;5057749;28;20029;-73
2022/05/29 03:28:45;;;;;;;8.57;2.88;;;11.80;83.90;;;;;;5053096;28;20028;-74
2022/05/29 03:31:15;;;;;;;8.32;2.92;;;11.90;83.90;;;;;;5043511;28;20647;-75
2022/05/29 03:33:41;;;;;;;7.80;2.47;;;11.80;83.80;;;;;;5035421;28;20442;-74
2022/05/29 03:36:11;;;;;;;7.07;2.60;;;11.90;83.90;;;;;;5049443;28;20483;-74
2022/05/29 03:38:36;;;;;;;6.30;2.42;;;11.90;83.90;;;;;;5049651;28;20021;-73
2022/05/29 03:41:10;;;;;;;10.80;3.08;;;11.90;84.00;;;;;;5049746;28;20352;-74
2022/05/29 03:43:36;;;;;;;7.18;3.00;;;11.90;84.00;;;;;;5049041;28;20025;-74
2022/05/29 03:46:02;;;;;;;7.93;3.10;;;12.00;84.00;;;;;;5048171;28;20033;-73
2022/05/29 03:48:30;;;;;;;11.18;3.05;;;11.90;84.00;;;;;;5048738;28;20396;-74
2022/05/29 03:50:56;;;;;;;8.07;2.40;;;12.00;84.20;;;;;;5041621;28;20096;-74
2022/05/29 03:53:21;;;;;;;7.93;2.80;;;12.00;84.90;;;;;;5029106;28;20572;-75
2022/05/29 03:55:48;;;;;;;7.32;2.33;;;12.00;84.30;;;;;;5046657;28;20029;-74
2022/05/29 03:58:13;;;;;;;7.50;2.40;;;11.90;84.20;;;;;;5049668;28;20107;-73
2022/05/29 04:00:39;;;;;;;10.88;2.95;;;11.90;84.40;;;;;;5048642;28;20147;-74
2022/05/29 04:03:04;;;;;;;11.30;3.47;;;11.90;85.40;;;;;;5047914;28;20120;-75
2022/05/29 04:05:30;;;;;;;8.90;3.22;;;11.90;84.90;;;;;;5048680;28;20428;-75
2022/05/29 04:13:28;;;;;;;6.93;2.65;;;11.90;85.10;;;;;;5048945;28;20090;-74
2022/05/29 04:15:53;;;;;;;9.57;2.80;;;12.00;85.70;;;;;;5047316;28;20100;-74
2022/05/29 04:18:20;;;;;;;8.05;3.45;;;12.00;85.00;;;;;;5048305;28;20035;-73
2022/05/29 04:20:51;;;;;;;10.07;2.65;;;12.10;85.30;;;;;;5048468;28;20017;-73
2022/05/29 04:23:17;;;;;;;8.75;3.65;;;12.10;85.00;;;;;;5048689;28;20201;-73
2022/05/29 04:25:44;;;;;;;8.05;2.70;;;12.10;84.60;;;;;;5048166;28;20494;-75
2022/05/29 04:28:10;;;;;;;7.82;2.30;;;12.10;84.60;;;;;;5048502;28;20132;-74
2022/05/29 04:30:35;;;;;;;8.40;2.63;;;12.20;84.40;;;;;;5047691;28;20025;-74
2022/05/29 04:33:01;;;;;;;5.80;2.50;;;12.20;84.40;;;;;;5046980;28;20567;-74
2022/05/29 04:35:29;;;;;;;11.50;3.85;;;12.20;84.50;;;;;;5048314;28;20033;-75
2022/05/29 04:37:54;;;;;;;7.38;2.60;;;12.20;84.30;;;;;;5046990;28;20035;-74
2022/05/29 04:40:21;;;;;;;11.80;2.95;;;12.30;84.20;;;;;;5047711;28;20104;-74
2022/05/29 04:42:46;;;;;;;8.73;2.75;;;12.30;83.80;;;;;;5047632;28;20537;-74
2022/05/29 04:45:12;;;;;;;8.32;2.65;;;12.30;83.90;;;;;;5047375;28;20032;-74
2022/05/29 04:47:38;;;;;;;5.78;2.28;;;12.40;83.80;;;;;;5047944;28;20551;-74
2022/05/29 04:50:07;;;;;;;6.20;2.03;;;12.40;83.50;;;;;;5046522;28;20066;-74
2022/05/29 04:52:34;;;;;;;8.25;2.97;;;12.40;83.40;;;;;;5047852;28;20476;-74
2022/05/29 04:55:00;;;;;;;7.70;2.35;;;12.40;83.30;;;;;;5048520;28;20079;-74
2022/05/29 04:57:25;;;;;;;6.03;2.15;;;12.50;83.00;;;;;;5048812;28;20052;-75
2022/05/29 04:59:52;;;;;;;7.32;2.38;;;12.50;82.80;;;;;;5045529;28;20144;-74
2022/05/29 05:02:18;;;;;;;7.22;2.17;;;12.40;82.80;;;;;;5039524;28;20773;-75
2022/05/29 05:04:43;;;;;;;7.53;2.45;;;12.40;83.10;;;;;;5047938;28;20025;-74
2022/05/29 05:07:09;;;;;;;4.97;1.90;;;12.40;83.30;;;;;;5048058;28;20025;-74
2022/05/29 05:09:35;;;;;;;6.72;2.33;;;12.40;83.30;;;;;;5048109;28;20059;-74
2022/05/29 05:12:00;;;;;;;7.65;2.33;;;12.40;83.40;;;;;;5047439;28;20075;-74
2022/05/29 05:14:27;;;;;;;5.93;2.42;;;12.50;83.80;;;;;;5044583;28;20114;-73
2022/05/29 05:16:53;;;;;;;12.07;3.30;;;12.50;83.90;;;;;;5047995;28;20025;-74
2022/05/29 05:19:19;;;;;;;6.70;2.78;;;12.50;83.80;;;;;;5046854;28;20043;-73
2022/05/29 05:21:48;;;;;;;6.53;2.50;;;12.50;84.00;;;;;;5048194;28;20036;-73
2022/05/29 05:24:14;;;;;;;5.68;2.03;;;12.50;84.00;;;;;;5044102;28;20023;-74
2022/05/29 05:26:41;;;;;;;7.07;2.08;;;12.50;84.30;;;;;;5047676;28;20399;-74
2022/05/29 05:29:07;;;;;;;5.20;2.08;;;12.50;84.70;;;;;;5047250;28;20032;-74
2022/05/29 05:31:33;;;;;;;7.28;2.17;;;12.50;84.40;;;;;;5047672;28;20033;-73
2022/05/29 05:33:59;;;;;;;12.07;2.75;;;12.50;84.70;;;;;;5046646;28;20388;-73
2022/05/29 05:36:25;;;;;;;8.85;2.40;;;12.60;84.80;;;;;;5046381;28;20035;-72
2022/05/29 05:38:53;;;;;;;5.68;1.50;;;12.60;84.40;;;;;;5047844;28;20384;-73
2022/05/29 05:41:19;;;;;;;5.07;1.58;;;12.60;84.10;;;;;;5047478;28;20021;-74
2022/05/29 05:43:46;;;;;;;7.95;2.63;;;12.60;83.40;;;;;;5047743;28;20060;-73
2022/05/29 05:46:15;;;;;;;5.10;1.77;;;12.60;83.80;;;;;;5046601;28;20033;-74
2022/05/29 05:48:40;;;;;;;4.03;1.60;;;12.60;83.60;;;;;;5049249;28;20119;-74
2022/05/29 05:51:07;;;;;;;6.25;1.83;;;12.50;84.10;;;;;;5049574;28;20476;-72
2022/05/29 05:53:34;;;;;;;5.78;2.00;;;12.60;84.60;;;;;;5048944;28;20467;-74
2022/05/29 05:56:04;;;;;;;8.82;2.17;;;12.60;84.40;;;;;;5051356;28;20103;-74
2022/05/29 05:58:29;;;;;;;;;;;12.60;84.20;;;;;;5045195;28;20365;-73
2022/05/29 06:00:55;;;;;;;6.70;2.30;;;12.70;84.10;;;;;;5043766;28;19974;-73
2022/05/29 06:03:21;;;;;;;6.15;2.33;;;12.80;84.30;;;;;;5041299;28;20056;-74
2022/05/29 06:05:48;;;;;;;5.90;2.10;;;12.80;84.30;;;;;;5043574;28;20096;-75
2022/05/29 06:08:14;;;;;;;5.93;2.03;;;12.80;84.40;;;;;;5039207;28;20078;-73
2022/05/29 06:10:39;;;;;;;8.07;2.25;;;12.80;84.30;;;;;;5039639;28;20495;-74
2022/05/29 06:13:06;;;;;;;6.90;2.25;;;12.80;84.30;;;;;;5033482;28;20557;-74
2022/05/29 06:15:33;;;;;;;9.38;2.45;;;12.90;84.30;;;;;;5038239;28;20041;-73
2022/05/29 06:17:58;;;;;;;7.20;1.77;;;12.90;84.30;;;;;;5037886;28;20506;-73
2022/05/29 06:20:24;;;;;;;4.20;1.38;;;12.90;84.10;;;;;;5040627;28;20021;-73
2022/05/29 06:22:50;;;;;;;6.55;1.38;;;12.90;83.40;;;;;;5043998;28;20014;-74
2022/05/29 06:25:16;;;;;;;5.45;2.10;;;12.90;84.00;;;;;;5045170;28;20021;-74
2022/05/29 06:27:44;;;;;;;8.13;2.05;;;13.10;84.30;;;;;;5041911;28;20388;-74
2022/05/29 06:30:13;;;;;;;7.45;1.88;;;13.00;83.40;;;;;;5037086;28;20049;-75
2022/05/29 06:32:39;;;;;;;5.63;1.60;;;13.10;83.30;;;;;;5041195;28;20053;-74
2022/05/29 06:35:07;;;;;;;3.85;1.38;;;13.10;82.80;;;;;;5043745;28;20119;-74
2022/05/29 06:37:32;;;;;;;3.90;1.63;;;13.10;82.80;;;;;;5041436;28;20045;-72
2022/05/29 06:39:58;;;;;;;6.53;1.67;;;13.10;82.50;;;;;;5047275;28;20035;-75
2022/05/29 06:42:24;;;;;;;5.47;1.38;;;13.10;82.60;;;;;;5049936;28;20021;-73
2022/05/29 06:44:50;;;;;;;5.13;1.52;;;13.20;83.00;;;;;;5046640;28;20053;-74
2022/05/29 06:47:15;;;;;;;6.97;2.83;;;13.30;82.80;;;;;;5042017;28;20021;-73
2022/05/29 06:49:41;;;;;;;7.07;2.38;;;13.30;82.30;;;;;;5041195;28;20045;-74
2022/05/29 06:52:11;;;;;;;3.50;1.63;;;13.30;82.30;;;;;;5044358;28;20063;-76
2022/05/29 06:54:37;;;;;;;7.88;1.92;;;13.30;82.80;;;;;;5030375;28;20037;-74
2022/05/29 06:57:06;;;;;;;8.27;1.70;;;13.30;83.10;;;;;;5046116;28;20031;-73
2022/05/29 07:06:58;;;;;;;6.32;1.70;;;13.20;82.60;;;;;;5049788;28;20025;-74
2022/05/29 07:08:01;;;;;;;5.65;1.73;;;13.30;83.90;;;;;;5009986;28;20088;-74
2022/05/29 07:10:32;;;;;;;7.10;1.63;;;13.40;83.00;;;;;;5037188;28;20480;-74
2022/05/29 07:13:00;;;;;;;5.88;1.90;;;13.30;83.20;;;;;;5048618;28;20420;-74
2022/05/29 07:15:28;;;;;;;6.03;1.55;;;13.30;83.60;;;;;;5038368;28;20043;-75
2022/05/29 07:17:54;;;;;;;4.95;1.60;;;13.40;83.90;;;;;;5045942;28;20771;-75
2022/05/29 07:20:19;;;;;;;4.38;1.65;;;13.40;83.60;;;;;;5039605;28;20064;-73
2022/05/29 07:22:45;;;;;;;5.05;1.63;;;13.50;83.10;;;;;;5045038;28;20451;-73
2022/05/29 07:25:12;;;;;;;3.78;1.60;;;13.60;82.40;;;;;;5043037;28;20043;-74
2022/05/29 07:27:38;;;;;;;6.63;1.58;;;13.60;82.60;;;;;;5043105;28;20697;-74
2022/05/29 07:30:06;;;;;;;4.82;1.27;;;13.70;82.60;;;;;;5049733;28;20029;-73
2022/05/29 07:32:31;;;;;;;4.53;1.40;;;13.70;80.90;;;;;;5045034;28;20048;-74
2022/05/29 07:34:58;;;;;;;4.25;1.40;;;13.70;81.20;;;;;;5039543;28;20029;-75
2022/05/29 07:37:23;;;;;;;4.88;1.20;;;13.80;81.50;;;;;;5046252;28;20446;-75
2022/05/29 07:39:51;;;;;;;3.28;1.35;;;13.80;81.60;;;;;;5048748;28;20071;-74
2022/05/29 07:45:02;;;;;;;6.68;1.55;;;13.80;81.30;;;;;;5049496;28;20392;-73
2022/05/29 07:47:34;;;;;;;5.07;2.00;;;13.90;81.50;;;;;;5048799;28;20021;-73
2022/05/29 07:50:00;;;;;;;4.07;1.73;;;13.90;81.50;;;;;;5049030;28;20029;-75
2022/05/29 07:52:26;;;;;;;4.10;1.55;;;13.90;80.60;;;;;;5049042;28;20021;-73
2022/05/29 07:54:53;;;;;;;5.35;1.70;;;13.80;80.90;;;;;;5049181;28;20781;-74
2022/05/29 07:57:19;;;;;;;4.82;1.50;;;13.80;81.30;;;;;;5037929;28;20084;-73
2022/05/29 07:59:44;;;;;;;8.15;1.52;;;13.80;81.50;;;;;;5048884;28;20139;-74
2022/05/29 08:02:10;;;;;;;6.40;1.80;;;13.80;81.30;;;;;;5047524;28;20115;-74
2022/05/29 08:04:36;;;;;;;6.50;2.22;;;13.80;81.10;;;;;;5048623;28;20025;-74
2022/05/29 08:07:02;;;;;;;5.93;1.70;;;13.80;81.70;;;;;;5049886;28;20032;-75
2022/05/29 08:09:27;;;;;;;7.25;1.70;;;13.80;82.20;;;;;;5048091;28;20735;-73
2022/05/29 08:11:53;;;;;;;6.82;1.95;;;13.80;83.40;;;;;;5052090;28;20713;-76
2022/05/29 08:14:18;;;;;;;7.88;2.33;;;13.90;82.30;;;;;;5047146;28;20036;-74
2022/05/29 08:16:44;;;;;;;5.93;1.70;;;14.00;82.00;;;;;;5046410;28;20505;-74
2022/05/29 08:19:10;;;;;;;6.28;2.35;;;14.00;80.70;;;;;;5048734;28;20020;-74
2022/05/29 08:21:35;;;;;;;5.13;1.73;;;14.00;80.50;;;;;;5047982;28;20543;-75
2022/05/29 08:32:14;;;;;;;6.80;2.08;;;13.90;82.20;;;;;;5028258;28;20059;-76
2022/05/29 08:34:42;;;;;;;8.75;2.30;;;13.80;83.20;;;;;;5042198;28;20865;-75
2022/05/29 08:37:08;;;;;;;4.88;2.08;;;13.80;83.40;;;;;;5046897;28;20049;-77
2022/05/29 08:39:35;;;;;;;10.18;2.20;;;13.90;85.00;;;;;;5040139;28;20031;-76
2022/05/29 08:42:02;;;;;;;6.85;2.20;;;13.90;83.60;;;;;;5039987;28;20036;-76
2022/05/29 08:44:42;;;;;;;5.07;1.55;;;14.00;81.20;;;;;;5038189;28;20171;-74
2022/05/29 08:47:07;;;;;;;7.32;2.13;;;14.00;81.90;;;;;;5040541;28;20040;-74
2022/05/29 08:49:43;;;;;;;9.38;2.33;;;14.10;82.80;;;;;;5033147;28;20468;-73
2022/05/29 08:52:31;;;;;;;9.05;2.80;;;14.30;82.90;;;;;;5037720;28;20052;-77
2022/05/29 08:55:08;;;;;;;8.05;1.88;;;14.30;80.90;;;;;;5040397;28;20029;-75
2022/05/29 08:57:42;;;;;;;8.55;2.20;;;14.30;79.70;;;;;;5037235;28;20040;-78
2022/05/29 09:00:45;;;;;;;6.75;2.28;;;14.30;81.40;;;;;;5038721;28;20014;-75
2022/05/29 09:03:29;;;;;;;5.28;1.58;;;14.40;80.50;;;;;;5034907;28;20025;-75
2022/05/29 09:06:04;;;;;;;7.10;1.85;;;14.50;78.90;;;;;;5037192;28;20048;-76
2022/05/29 09:08:36;;;;;;;7.25;1.50;;;14.50;79.80;;;;;;5033719;28;20116;-75
2022/05/29 09:11:16;;;;;;;6.32;1.85;;;14.60;78.30;;;;;;5043762;28;20030;-78
2022/05/29 09:13:56;;;;;;;5.80;1.30;;;14.80;78.30;;;;;;5042604;28;20106;-76
2022/05/29 09:16:25;;;;;;;6.22;1.80;;;14.80;77.20;;;;;;5038516;28;20025;-75
2022/05/29 09:18:53;;;;;;;7.30;1.67;;;14.80;77.00;;;;;;5039008;28;20075;-75
2022/05/29 09:21:26;;;;;;;7.50;1.73;;;14.80;76.60;;;;;;5037865;28;20105;-76
2022/05/29 09:24:01;;;;;;;4.53;1.10;;;14.80;76.50;;;;;;5035237;28;20842;-76
2022/05/29 09:26:32;;;;;;;5.95;1.40;;;14.90;76.80;;;;;;5035837;28;20032;-75
2022/05/29 09:28:58;;;;;;;8.75;2.10;;;15.00;76.50;;;;;;5040672;28;20030;-75
2022/05/29 09:31:27;;;;;;;8.77;2.50;;;15.10;75.90;;;;;;5039078;28;20036;-75
2022/05/29 09:33:54;;;;;;;5.90;1.33;;;15.10;75.20;;;;;;5039483;28;22433;-76
2022/05/29 09:36:56;;;;;;;4.38;1.25;;;15.10;75.30;;;;;;5040536;28;20033;-75
2022/05/29 09:39:30;;;;;;;11.07;1.70;;;15.10;75.40;;;;;;5040472;28;20031;-76
2022/05/29 09:42:18;;;;;;;5.63;1.52;;;15.20;76.00;;;;;;5037191;28;20444;-76
2022/05/29 09:45:22;;;;;;;7.65;2.00;;;15.30;74.90;;;;;;5038601;28;20032;-77
2022/05/29 09:50:50;;;;;;;9.57;2.05;;;15.40;74.40;;;;;;5039435;28;20064;-75
2022/05/29 09:53:34;;;;;;;4.47;1.27;;;15.60;73.50;;;;;;5039165;28;20029;-73
2022/05/29 09:56:03;;;;;;;10.73;2.42;;;15.80;71.40;;;;;;5043480;28;20048;-75
2022/05/29 09:58:46;;;;;;;9.05;2.13;;;16.00;70.50;;;;;;5039344;28;20025;-75
2022/05/29 10:01:30;;;;;;;6.95;1.67;;;16.10;70.80;;;;;;5040338;28;20029;-76
2022/05/29 10:03:58;;;;;;;7.13;1.67;;;16.00;69.60;;;;;;5039231;28;20390;-75
2022/05/29 10:06:33;;;;;;;8.23;1.67;;;16.00;68.90;;;;;;5040537;28;20033;-75
2022/05/29 10:09:13;;;;;;;8.27;1.65;;;15.90;69.50;;;;;;5039458;28;20520;-75
2022/05/29 10:11:41;;;;;;;11.77;1.52;;;16.00;69.60;;;;;;5035452;28;20036;-75
2022/05/29 10:14:38;;;;;;;6.60;1.65;;;16.00;69.90;;;;;;5038840;28;20049;-74
2022/05/29 10:17:16;;;;;;;5.88;1.27;;;16.10;69.00;;;;;;5037384;28;20061;-75
2022/05/29 10:19:45;;;;;;;8.13;2.10;;;16.10;67.60;;;;;;5036231;28;20036;-76
2022/05/29 10:22:30;;;;;;;7.50;1.70;;;16.00;68.70;;;;;;5040542;28;20128;-75
2022/05/29 10:24:56;;;;;;;6.43;1.73;;;15.90;68.10;;;;;;5038541;28;20484;-76
2022/05/29 10:27:22;;;;;;;7.80;1.30;;;15.90;69.40;;;;;;5046516;28;20096;-76
2022/05/29 10:29:53;;;;;;;5.28;1.58;;;15.90;69.50;;;;;;5038734;28;20039;-76
2022/05/29 10:32:26;;;;;;;8.13;1.70;;;16.00;69.50;;;;;;5037849;28;20047;-76
2022/05/29 10:35:13;;;;;;;7.65;1.52;;;16.00;69.30;;;;;;5039839;28;20109;-76
2022/05/29 10:37:44;;;;;;;9.60;2.30;;;15.90;69.10;;;;;;5037011;28;20033;-76
2022/05/29 10:40:19;;;;;;;7.20;1.50;;;15.70;70.20;;;;;;5034139;28;20032;-75
2022/05/29 10:42:47;;;;;;;9.25;1.52;;;15.50;70.40;;;;;;5039442;28;20039;-76
2022/05/29 10:45:25;;;;;;;5.63;1.40;;;15.40;71.40;;;;;;5038104;28;20044;-75
2022/05/29 10:48:02;;;;;;;5.63;1.33;;;15.20;72.00;;;;;;5041551;28;20490;-74
2022/05/29 10:50:57;;;;;;;3.03;0.82;;;15.20;72.40;;;;;;5036179;28;20025;-76
2022/05/29 10:54:23;;;;;;;7.93;2.00;;;15.10;72.30;;;;;;5038116;28;20021;-76
2022/05/29 10:56:57;;;;;;;8.77;1.70;;;15.20;72.40;;;;;;4991190;28;20057;-75
2022/05/29 10:59:38;;;;;;;5.70;0.98;;;15.30;72.10;;;;;;5028056;28;20087;-74
2022/05/29 11:05:41;;;;;;;3.57;0.83;;;15.50;71.00;;;;;;5039226;28;20000;-77
2022/05/29 11:08:12;;;;;;;7.80;1.38;;;15.90;70.40;;;;;;5013059;28;20040;-75
2022/05/29 11:10:50;;;;;;;6.18;1.45;;;16.20;68.90;;;;;;5032936;28;20083;-76
2022/05/29 11:13:27;;;;;;;8.23;1.88;;;16.30;68.20;;;;;;5036995;28;20048;-75
2022/05/29 11:16:07;;;;;;;9.32;1.83;;;16.30;67.90;;;;;;5038397;28;20064;-76
2022/05/29 11:19:01;;;;;;;5.05;1.23;;;16.10;66.00;;;;;;5037588;28;20112;-78
2022/05/29 11:21:42;;;;;;;7.03;2.05;;;16.30;67.40;;;;;;5034243;28;20025;-75
2022/05/29 11:24:21;;;;;;;3.85;1.23;;;16.30;65.60;;;;;;5036336;28;20036;-75
2022/05/29 11:27:26;;;;;;;6.70;1.40;;;16.40;67.00;;;;;;5038158;28;20032;-75
2022/05/29 11:30:00;;;;;;;6.18;1.80;;;16.50;67.00;;;;;;5034618;28;20032;-75
2022/05/29 11:32:39;;;;;;;8.00;1.80;;;16.40;63.80;;;;;;5039801;28;20108;-76
2022/05/29 11:35:11;;;;;;;9.77;2.25;;;16.50;63.70;;;;;;5032822;28;20041;-76
2022/05/29 11:37:45;;;;;;;7.38;1.20;;;16.50;64.10;;;;;;5036739;28;20104;-76
2022/05/29 11:40:14;;;;;;;6.40;1.75;;;16.60;64.70;;;;;;5035782;28;20028;-76
2022/05/29 11:43:15;;;;;;;9.20;1.70;;;16.70;63.90;;;;;;5039654;28;20056;-77
2022/05/29 11:51:48;;;;;;;7.40;1.25;;;16.60;64.70;;;;;;5015357;28;20035;-75
2022/05/29 11:54:49;;;;;;;5.80;1.65;;;16.80;65.40;;;;;;5032048;28;20045;-78
2022/05/29 11:57:38;;;;;;;4.60;1.10;;;16.70;62.30;;;;;;5025831;28;20554;-77
2022/05/29 12:00:07;;;;;;;8.32;1.65;;;16.80;61.50;;;;;;5034505;28;20510;-75
2022/05/29 12:02:56;;;;;;;6.10;1.58;;;17.00;62.20;;;;;;5034722;28;20020;-76
2022/05/29 12:05:29;;;;;;;7.22;1.38;;;17.30;64.60;;;;;;5035555;28;20803;-77
2022/05/29 12:08:08;;;;;;;5.07;1.30;;;17.40;60.90;;;;;;5040706;28;20036;-75
2022/05/29 12:10:48;;;;;;;4.78;1.33;;;17.50;59.80;;;;;;5038578;28;20051;-76
2022/05/29 12:13:16;;;;;;;8.98;1.52;;;17.60;59.00;;;;;;5035674;28;20028;-77
2022/05/29 12:15:51;;;;;;;8.55;1.45;;;17.80;58.70;;;;;;5042183;28;20047;-75
2022/05/29 12:18:21;;;;;;;4.60;0.90;;;18.10;59.10;;;;;;5035302;28;20083;-75
2022/05/29 12:20:53;;;;;;;4.00;0.98;;;18.30;59.80;;;;;;5041842;28;20434;-75
2022/05/29 12:23:25;;;;;;;4.43;1.23;;;18.40;58.40;;;;;;5041045;28;20019;-76
2022/05/29 12:26:24;;;;;;;5.40;1.00;;;18.60;56.40;;;;;;5037275;28;20082;-76
2022/05/29 12:29:00;;;;;;;5.18;1.35;;;18.90;57.50;;;;;;5034178;28;20025;-75
2022/05/29 12:31:44;;;;;;;5.93;1.45;;;19.20;56.60;;;;;;5037907;28;20037;-76
2022/05/29 12:34:24;;;;;;;3.42;0.70;;;19.50;55.70;;;;;;5040183;28;20046;-76
2022/05/29 12:37:14;;;;;;;6.87;1.13;;;19.40;55.40;;;;;;5037985;28;20022;-75
2022/05/29 12:39:49;;;;;;;3.75;0.80;;;19.10;55.60;;;;;;5037910;28;20162;-76
2022/05/29 12:42:53;;;;;;;5.30;0.50;;;18.80;56.10;;;;;;5037958;28;20029;-74
2022/05/29 12:45:58;;;;;;;7.15;1.40;;;18.30;55.20;;;;;;5043953;28;20056;-76
2022/05/29 12:48:36;;;;;;;2.08;0.55;;;18.00;56.10;;;;;;5041515;28;20025;-76
2022/05/29 12:51:14;;;;;;;3.45;0.70;;;17.70;58.90;;;;;;5039457;28;20113;-74
2022/05/29 12:54:01;;;;;;;4.97;0.70;;;17.50;56.50;;;;;;5035559;28;20025;-75
2022/05/29 12:56:39;;;;;;;3.80;1.20;;;17.50;58.40;;;;;;5045672;28;20036;-76
2022/05/29 12:59:14;;;;;;;5.82;0.93;;;17.30;55.70;;;;;;5040361;28;20059;-76
2022/05/29 13:01:56;;;;;;;4.22;0.88;;;17.30;56.00;;;;;;5054912;28;20051;-76
2022/05/29 13:04:43;;;;;;;5.22;0.88;;;17.20;57.00;;;;;;5049947;28;20081;-76
2022/05/29 13:07:21;;;;;;;4.57;0.70;;;17.40;56.80;;;;;;5040316;28;20028;-77
2022/05/29 13:10:11;;;;;;;3.60;0.98;;;17.40;56.40;;;;;;5039835;28;20044;-76
2022/05/29 13:12:43;;;;;;;5.05;0.70;;;17.50;60.90;;;;;;5039625;28;20442;-75
2022/05/29 13:15:20;;;;;;;5.63;1.38;;;17.30;58.90;;;;;;5035131;28;20061;-75
2022/05/29 13:17:46;;;;;;;4.00;0.80;;;17.30;58.60;;;;;;5039291;28;20119;-76
2022/05/29 13:20:17;;;;;;;2.88;0.70;;;17.20;57.40;;;;;;5038807;28;20108;-76
2022/05/29 13:23:02;;;;;;;3.63;0.80;;;17.10;60.80;;;;;;5038806;28;20041;-75
2022/05/29 13:26:08;;;;;;;3.17;0.80;;;17.00;57.80;;;;;;5038640;28;20500;-77
2022/05/29 13:28:41;;;;;;;5.57;1.08;;;16.90;62.80;;;;;;5001916;28;20034;-75
2022/05/29 13:31:16;;;;;;;4.15;0.70;;;17.00;62.40;;;;;;5036427;28;20014;-77
2022/05/29 13:33:50;;;;;;;5.25;1.10;;;17.10;59.90;;;;;;5037231;28;20931;-75
2022/05/29 13:36:44;;;;;;;2.63;0.85;;;17.10;58.10;;;;;;5037624;28;20044;-76
2022/05/29 13:39:24;;;;;;;3.58;1.05;;;17.20;59.10;;;;;;5040959;28;20032;-74
2022/05/29 13:41:57;;;;;;;3.55;0.90;;;17.30;57.10;;;;;;5044985;28;20117;-75
2022/05/29 13:44:36;;;;;;;6.00;0.98;;;17.40;59.60;;;;;;5043499;28;20031;-75
2022/05/29 13:47:23;;;;;;;5.77;1.47;;;17.50;59.40;;;;;;5041696;28;20048;-74
2022/05/29 13:50:11;;;;;;;;;;;;;;;;;;;;;
2022/05/29 13:52:56;;;;;;;6.43;1.25;;;17.60;62.60;;;;;;5041524;28;20647;-73
2022/05/29 13:55:33;;;;;;;4.20;1.20;;;17.60;55.90;;;;;;5037713;28;20045;-75
2022/05/29 14:04:52;;;;;;;5.40;1.15;;;17.30;57.80;;;;;;5034831;28;20043;-75
2022/05/29 14:07:29;;;;;;;5.00;1.20;;;17.40;63.50;;;;;;5034396;28;20029;-74